createdAt,value
2018-04-28T00:00:31.407Z,5.50
2018-04-28T00:02:59.665Z,5.67
2018-04-28T00:05:27.116Z,5.90
2018-04-28T00:07:54.650Z,5.40
2018-04-28T00:10:22.021Z,5.53
2018-04-28T00:12:50.845Z,4.73
2018-04-28T00:15:18.298Z,5.40
2018-04-28T00:17:45.752Z,5.77
2018-04-28T00:20:14.208Z,5.40
2018-04-28T00:22:44.140Z,5.40
2018-04-28T00:25:19.053Z,5.33
2018-04-28T00:31:19.987Z,5.23
2018-04-28T00:33:55.037Z,5.40
2018-04-28T00:36:26.090Z,5.47
2018-04-28T00:38:58.121Z,5.57
2018-04-28T00:41:25.611Z,5.40
2018-04-28T00:43:53.873Z,5.43
2018-04-28T00:46:23.094Z,5.30
2018-04-28T00:49:00.359Z,5.47
2018-04-28T00:51:37.018Z,5.87
2018-04-28T00:54:12.228Z,6.00
2018-04-28T00:56:40.466Z,6.17
2018-04-28T01:02:09.498Z,5.50
2018-04-28T01:04:46.169Z,5.47
2018-04-28T01:07:18.141Z,6.07
2018-04-28T01:12:52.296Z,6.40
2018-04-28T01:15:21.591Z,6.13
2018-04-28T01:17:59.851Z,5.97
2018-04-28T01:20:28.241Z,5.33
2018-04-28T01:22:56.571Z,5.30
2018-04-28T01:25:42.475Z,5.30
2018-04-28T01:28:20.544Z,5.27
2018-04-28T01:30:56.723Z,5.70
2018-04-28T01:33:42.271Z,5.30
2018-04-28T01:39:19.806Z,5.70
2018-04-28T01:41:55.936Z,5.70
2018-04-28T01:44:27.022Z,5.87
2018-04-28T01:46:56.335Z,5.60
2018-04-28T01:52:37.034Z,5.40
2018-04-28T01:55:15.907Z,5.53
2018-04-28T01:57:53.899Z,5.60
2018-04-28T02:00:24.001Z,5.93
2018-04-28T02:06:05.282Z,5.17
2018-04-28T02:08:32.767Z,5.93
2018-04-28T02:11:00.249Z,6.67
2018-04-28T02:13:31.592Z,6.57
2018-04-28T02:16:02.820Z,6.23
2018-04-28T02:18:37.857Z,6.33
2018-04-28T02:21:11.618Z,6.20
2018-04-28T02:24:00.596Z,6.37
2018-04-28T02:26:40.576Z,5.97
2018-04-28T02:29:36.457Z,5.47
2018-04-28T02:32:18.836Z,6.17
2018-04-28T02:34:49.186Z,6.37
2018-04-28T02:37:26.627Z,6.10
2018-04-28T02:40:01.023Z,6.30
2018-04-28T02:42:53.458Z,6.40
2018-04-28T02:51:36.866Z,5.90
2018-04-28T02:54:08.106Z,6.27
2018-04-28T02:56:40.586Z,5.83
2018-04-28T02:59:10.663Z,6.00
2018-04-28T03:01:42.610Z,6.40
2018-04-28T03:04:10.831Z,6.27
2018-04-28T03:06:39.237Z,6.33
2018-04-28T03:09:07.503Z,5.90
2018-04-28T03:11:35.785Z,6.00
2018-04-28T03:14:04.206Z,6.17
2018-04-28T03:16:40.109Z,6.53
2018-04-28T03:19:18.233Z,6.13
2018-04-28T03:21:48.575Z,6.03
2018-04-28T03:27:20.634Z,6.10
2018-04-28T03:29:54.828Z,6.27
2018-04-28T03:32:36.070Z,6.40
2018-04-28T03:35:07.071Z,6.20
2018-04-28T03:37:36.362Z,6.47
2018-04-28T03:42:59.336Z,5.73
2018-04-28T03:45:44.072Z,6.17
2018-04-28T03:48:29.969Z,5.80
2018-04-28T03:51:03.367Z,5.60
2018-04-28T03:53:32.476Z,6.40
2018-04-28T03:56:01.476Z,6.60
2018-04-28T03:58:40.815Z,6.30
2018-04-28T04:01:20.046Z,5.97
2018-04-28T04:03:59.342Z,6.63
2018-04-28T04:06:38.445Z,6.83
2018-04-28T04:09:07.791Z,7.67
2018-04-28T04:11:42.774Z,6.77
2018-04-28T04:14:17.090Z,6.57
2018-04-28T04:20:05.941Z,6.30
2018-04-28T04:25:42.791Z,6.07
2018-04-28T04:28:12.199Z,6.20
2018-04-28T04:30:45.568Z,5.70
2018-04-28T04:36:16.071Z,4.93
2018-04-28T04:38:45.926Z,5.07
2018-04-28T04:44:48.829Z,5.90
2018-04-28T04:47:43.111Z,5.37
2018-04-28T04:53:37.384Z,6.00
2018-04-28T04:56:14.668Z,4.70
2018-04-28T04:58:46.758Z,4.70
2018-04-28T05:01:25.419Z,5.57
2018-04-28T05:07:11.970Z,3.17
2018-04-28T05:12:47.016Z,3.00
2018-04-28T05:15:26.471Z,2.40
2018-04-28T05:18:05.979Z,2.90
2018-04-28T05:23:41.010Z,2.50
2018-04-28T05:29:22.759Z,2.40
2018-04-28T05:31:56.042Z,2.37
2018-04-28T05:34:29.015Z,2.30
2018-04-28T05:37:06.385Z,2.43
2018-04-28T05:39:44.953Z,2.23
2018-04-28T05:45:55.697Z,2.47
2018-04-28T05:48:29.070Z,2.10
2018-04-28T05:54:00.889Z,2.07
2018-04-28T05:56:40.053Z,2.20
2018-04-28T05:59:16.136Z,2.23
2018-04-28T06:05:07.779Z,2.07
2018-04-28T06:07:44.210Z,1.87
2018-04-28T06:10:17.509Z,2.10
2018-04-28T06:12:56.792Z,1.70
2018-04-28T06:15:30.194Z,2.40
2018-04-28T06:20:55.846Z,2.20
2018-04-28T06:23:23.349Z,2.07
2018-04-28T06:25:51.219Z,2.00
2018-04-28T06:28:19.689Z,1.70
2018-04-28T06:30:47.207Z,2.30
2018-04-28T06:33:14.774Z,2.00
2018-04-28T06:35:42.274Z,2.10
2018-04-28T06:40:43.737Z,2.00
2018-04-28T06:43:11.272Z,1.90
2018-04-28T06:45:38.833Z,1.70
2018-04-28T06:48:06.375Z,1.93
2018-04-28T06:50:33.946Z,2.10
2018-04-28T06:53:01.468Z,1.90
2018-04-28T06:55:29.027Z,1.73
2018-04-28T06:57:56.569Z,2.10
2018-04-28T07:00:24.136Z,1.87
2018-04-28T07:02:51.666Z,1.70
2018-04-28T07:05:19.169Z,2.10
2018-04-28T07:07:46.667Z,1.90
2018-04-28T07:10:14.184Z,1.90
2018-04-28T07:12:41.846Z,2.00
2018-04-28T07:15:09.376Z,1.80
2018-04-28T07:17:37.650Z,2.00
2018-04-28T07:20:05.190Z,1.83
2018-04-28T07:22:32.727Z,1.90
2018-04-28T07:25:00.266Z,1.93
2018-04-28T07:27:27.791Z,2.13
2018-04-28T07:29:56.080Z,2.23
2018-04-28T07:32:23.620Z,2.63
2018-04-28T07:34:51.178Z,2.37
2018-04-28T07:37:19.458Z,2.23
2018-04-28T07:39:47.801Z,2.30
2018-04-28T07:42:15.407Z,1.80
2018-04-28T07:44:42.966Z,1.93
2018-04-28T07:47:10.501Z,2.10
2018-04-28T07:49:38.012Z,1.93
2018-04-28T07:52:05.504Z,1.90
2018-04-28T07:54:32.970Z,1.93
2018-04-28T07:57:00.453Z,2.03
2018-04-28T07:59:28.043Z,1.73
2018-04-28T08:01:55.564Z,2.00
2018-04-28T08:04:23.403Z,1.90
2018-04-28T08:06:51.679Z,2.10
2018-04-28T08:09:19.934Z,2.37
2018-04-28T08:11:47.439Z,1.90
2018-04-28T08:14:14.965Z,2.10
2018-04-28T08:16:42.558Z,2.10
2018-04-28T08:19:10.066Z,2.30
2018-04-28T08:21:37.547Z,2.00
2018-04-28T08:24:05.026Z,2.10
2018-04-28T08:26:32.582Z,2.40
2018-04-28T08:29:00.070Z,2.30
2018-04-28T08:31:27.588Z,2.33
2018-04-28T08:33:55.060Z,2.20
2018-04-28T08:36:22.547Z,2.23
2018-04-28T08:38:50.035Z,2.07
2018-04-28T08:41:17.529Z,2.43
2018-04-28T08:43:45.027Z,2.87
2018-04-28T08:46:13.302Z,2.30
2018-04-28T08:48:40.785Z,2.70
2018-04-28T08:51:08.270Z,1.97
2018-04-28T08:53:35.741Z,2.10
2018-04-28T08:56:03.217Z,2.10
2018-04-28T08:58:30.707Z,2.30
2018-04-28T09:00:58.229Z,2.10
2018-04-28T09:03:25.705Z,1.93
2018-04-28T09:05:53.964Z,2.20
2018-04-28T09:08:21.437Z,2.30
2018-04-28T09:10:48.938Z,2.27
2018-04-28T09:13:16.431Z,2.10
2018-04-28T09:15:43.917Z,2.17
2018-04-28T09:18:11.430Z,2.50
2018-04-28T09:20:38.893Z,2.40
2018-04-28T09:23:06.398Z,2.50
2018-04-28T09:25:33.885Z,2.30
2018-04-28T09:28:01.392Z,2.77
2018-04-28T09:30:28.885Z,2.33
2018-04-28T09:32:56.381Z,2.30
2018-04-28T09:35:23.853Z,2.40
2018-04-28T09:37:52.112Z,2.33
2018-04-28T09:40:19.610Z,2.43
2018-04-28T09:42:47.107Z,2.50
2018-04-28T09:45:14.604Z,2.90
2018-04-28T09:47:42.097Z,2.23
2018-04-28T09:50:09.649Z,2.57
2018-04-28T09:52:37.192Z,2.53
2018-04-28T09:55:04.739Z,2.53
2018-04-28T09:57:32.986Z,2.20
2018-04-28T10:00:12.287Z,2.77
2018-04-28T10:02:39.765Z,2.70
2018-04-28T10:05:08.014Z,2.63
2018-04-28T10:07:35.481Z,2.50
2018-04-28T10:10:02.966Z,2.50
2018-04-28T10:12:30.432Z,2.50
2018-04-28T10:14:57.915Z,2.40
2018-04-28T10:17:25.399Z,2.70
2018-04-28T10:19:52.869Z,2.50
2018-04-28T10:22:20.368Z,2.10
2018-04-28T10:24:47.863Z,2.60
2018-04-28T10:27:15.346Z,2.67
2018-04-28T10:29:42.843Z,2.50
2018-04-28T10:32:10.343Z,2.60
2018-04-28T10:34:37.910Z,2.50
2018-04-28T10:37:05.393Z,2.60
2018-04-28T10:39:33.344Z,2.70
2018-04-28T10:42:00.901Z,3.07
2018-04-28T10:44:29.160Z,2.80
2018-04-28T10:46:56.671Z,2.50
2018-04-28T10:49:24.146Z,2.67
2018-04-28T10:51:51.654Z,2.57
2018-04-28T10:54:19.201Z,2.23
2018-04-28T10:56:46.746Z,2.50
2018-04-28T10:59:14.225Z,2.67
2018-04-28T11:01:41.750Z,2.73
2018-04-28T11:04:09.217Z,2.60
2018-04-28T11:06:36.694Z,2.70
2018-04-28T11:09:04.221Z,3.00
2018-04-28T11:11:31.768Z,2.60
2018-04-28T11:13:59.329Z,2.87
2018-04-28T11:16:26.900Z,3.00
2018-04-28T11:18:54.422Z,3.00
2018-04-28T11:21:21.911Z,2.90
2018-04-28T11:23:49.387Z,3.20
2018-04-28T11:26:16.873Z,2.60
2018-04-28T11:28:44.366Z,3.00
2018-04-28T11:31:12.630Z,2.73
2018-04-28T11:33:40.124Z,3.13
2018-04-28T11:36:08.397Z,2.93
2018-04-28T11:38:35.910Z,2.73
2018-04-28T11:41:03.436Z,2.80
2018-04-28T11:43:30.980Z,3.20
2018-04-28T11:45:59.416Z,2.93
2018-04-28T11:48:26.940Z,3.03
2018-04-28T11:50:54.532Z,3.20
2018-04-28T11:53:22.936Z,2.87
2018-04-28T11:55:50.462Z,3.37
2018-04-28T11:58:17.964Z,3.00
2018-04-28T12:00:46.270Z,3.00
2018-04-28T12:03:14.259Z,2.70
2018-04-28T12:05:44.195Z,2.77
2018-04-28T12:08:13.302Z,2.67
2018-04-28T12:10:40.876Z,2.70
2018-04-28T12:13:08.663Z,2.80
2018-04-28T12:15:36.215Z,2.93
2018-04-28T12:18:04.578Z,3.10
2018-04-28T12:20:37.434Z,3.60
2018-04-28T12:23:05.088Z,3.43
2018-04-28T12:25:32.620Z,3.23
2018-04-28T12:28:00.124Z,3.30
2018-04-28T12:30:27.617Z,3.13
2018-04-28T12:32:55.141Z,3.13
2018-04-28T12:35:23.392Z,3.40
2018-04-28T12:37:50.940Z,3.00
2018-04-28T12:40:19.775Z,2.97
2018-04-28T12:42:47.276Z,2.73
2018-04-28T12:45:14.835Z,3.07
2018-04-28T12:48:04.901Z,3.23
2018-04-28T12:50:32.387Z,3.10
2018-04-28T12:52:59.822Z,2.70
2018-04-28T12:55:27.275Z,3.03
2018-04-28T12:57:54.713Z,2.70
2018-04-28T13:00:22.931Z,3.27
2018-04-28T13:02:50.381Z,3.30
2018-04-28T13:05:17.839Z,3.00
2018-04-28T13:07:45.301Z,3.10
2018-04-28T13:10:12.741Z,3.20
2018-04-28T13:12:40.196Z,3.27
2018-04-28T13:15:07.657Z,3.10
2018-04-28T13:17:35.103Z,2.90
2018-04-28T13:20:02.554Z,3.07
2018-04-28T13:22:30.004Z,2.90
2018-04-28T13:24:58.225Z,2.83
2018-04-28T13:27:25.677Z,3.13
2018-04-28T13:29:53.125Z,2.87
2018-04-28T13:32:20.590Z,3.03
2018-04-28T13:34:48.041Z,3.07
2018-04-28T13:37:15.522Z,2.80
2018-04-28T13:39:42.976Z,3.17
2018-04-28T13:42:10.418Z,2.90
2018-04-28T13:44:37.882Z,3.00
2018-04-28T13:47:05.329Z,3.07
2018-04-28T13:49:32.780Z,3.00
2018-04-28T13:52:00.241Z,2.67
2018-04-28T13:54:27.678Z,3.27
2018-04-28T13:56:55.126Z,3.00
2018-04-28T13:59:22.570Z,2.73
2018-04-28T14:01:50.783Z,3.13
2018-04-28T14:04:18.230Z,3.30
2018-04-28T14:06:45.694Z,3.23
2018-04-28T14:09:13.146Z,3.40
2018-04-28T14:11:40.598Z,3.50
2018-04-28T14:14:08.040Z,3.10
2018-04-28T14:16:35.491Z,3.53
2018-04-28T14:19:03.711Z,3.10
2018-04-28T14:21:31.174Z,3.40
2018-04-28T14:23:58.631Z,3.20
2018-04-28T14:26:26.071Z,3.23
2018-04-28T14:28:53.533Z,3.67
2018-04-28T14:31:20.991Z,3.60
2018-04-28T14:33:48.435Z,3.23
2018-04-28T14:36:15.926Z,3.23
2018-04-28T14:38:43.331Z,3.50
2018-04-28T14:41:10.786Z,4.17
2018-04-28T14:43:38.234Z,3.73
2018-04-28T14:46:06.461Z,3.50
2018-04-28T14:48:33.902Z,4.03
2018-04-28T14:51:01.364Z,3.80
2018-04-28T14:53:28.814Z,4.10
2018-04-28T14:55:56.255Z,3.67
2018-04-28T14:58:23.711Z,3.20
2018-04-28T15:00:51.162Z,3.93
2018-04-28T15:03:18.610Z,4.83
2018-04-28T15:05:46.063Z,3.27
2018-04-28T15:08:31.127Z,5.97
2018-04-28T15:10:59.351Z,3.50
2018-04-28T15:13:26.810Z,3.50
2018-04-28T15:15:54.246Z,3.50
2018-04-28T15:18:21.701Z,3.77
2018-04-28T15:20:49.146Z,4.03
2018-04-28T15:23:16.621Z,4.27
2018-04-28T15:25:44.075Z,4.27
2018-04-28T15:28:11.531Z,3.40
2018-04-28T15:30:38.987Z,5.20
2018-04-28T15:33:06.449Z,3.83
2018-04-28T15:35:33.914Z,3.60
2018-04-28T15:38:01.383Z,6.23
2018-04-28T15:40:28.829Z,4.67
2018-04-28T15:42:56.303Z,4.20
2018-04-28T15:45:23.745Z,4.30
2018-04-28T15:47:51.217Z,3.37
2018-04-28T15:50:18.667Z,4.20
2018-04-28T15:52:46.117Z,3.63
2018-04-28T15:55:13.576Z,3.50
2018-04-28T15:57:41.021Z,3.30
2018-04-28T16:00:08.486Z,3.40
2018-04-28T16:02:35.941Z,3.50
2018-04-28T16:05:03.386Z,3.43
2018-04-28T16:07:30.844Z,3.67
2018-04-28T16:09:58.302Z,3.60
2018-04-28T16:12:25.761Z,3.60
2018-04-28T16:14:53.295Z,4.07
2018-04-28T16:17:20.673Z,3.80
2018-04-28T16:19:48.117Z,4.10
2018-04-28T16:22:15.585Z,3.60
2018-04-28T16:24:43.036Z,4.37
2018-04-28T16:27:10.489Z,4.20
2018-04-28T16:29:37.947Z,5.30
2018-04-28T16:32:05.389Z,4.60
2018-04-28T16:34:32.837Z,4.00
2018-04-28T16:37:01.062Z,4.40
2018-04-28T16:39:28.520Z,4.33
2018-04-28T16:41:55.975Z,4.60
2018-04-28T16:44:23.416Z,4.60
2018-04-28T16:46:50.897Z,5.33
2018-04-28T16:49:18.353Z,4.07
2018-04-28T16:51:45.798Z,4.10
2018-04-28T16:54:13.268Z,3.77
2018-04-28T16:56:40.722Z,4.40
2018-04-28T16:59:08.204Z,4.37
2018-04-28T17:01:35.621Z,5.07
2018-04-28T17:04:03.076Z,4.43
2018-04-28T17:06:30.582Z,4.77
2018-04-28T17:08:57.964Z,4.53
2018-04-28T17:11:25.424Z,4.30
2018-04-28T17:13:52.877Z,4.40
2018-04-28T17:16:20.338Z,4.30
2018-04-28T17:18:47.818Z,4.80
2018-04-28T17:21:15.257Z,5.03
2018-04-28T17:23:42.719Z,5.13
2018-04-28T17:26:10.172Z,4.40
2018-04-28T17:28:37.610Z,5.97
2018-04-28T17:31:05.839Z,9.60
2018-04-28T17:33:33.286Z,7.40
2018-04-28T17:36:00.733Z,6.10
2018-04-28T17:38:28.180Z,4.77
2018-04-28T17:40:55.636Z,4.77
2018-04-28T17:43:23.183Z,4.60
2018-04-28T17:45:50.557Z,4.20
2018-04-28T17:48:18.031Z,3.90
2018-04-28T17:50:45.472Z,3.80
2018-04-28T17:53:12.926Z,3.67
2018-04-28T17:55:40.386Z,3.70
2018-04-28T17:58:07.831Z,4.10
2018-04-28T18:00:35.293Z,4.03
2018-04-28T18:03:02.751Z,4.00
2018-04-28T18:05:30.205Z,4.40
2018-04-28T18:07:57.655Z,4.07
2018-04-28T18:10:25.104Z,4.53
2018-04-28T18:12:52.555Z,4.77
2018-04-28T18:15:20.774Z,5.90
2018-04-28T18:17:48.236Z,5.47
2018-04-28T18:20:15.706Z,6.87
2018-04-28T18:22:43.149Z,6.73
2018-04-28T18:25:10.605Z,6.67
2018-04-28T18:27:38.053Z,9.63
2018-04-28T18:30:05.522Z,5.93
2018-04-28T18:32:33.789Z,7.50
2018-04-28T18:35:01.234Z,6.57
2018-04-28T18:37:28.696Z,6.60
2018-04-28T18:39:56.145Z,7.73
2018-04-28T18:42:23.626Z,6.67
2018-04-28T18:44:51.078Z,6.27
2018-04-28T18:47:18.532Z,5.80
2018-04-28T18:49:45.977Z,5.77
2018-04-28T18:52:13.437Z,6.47
2018-04-28T18:54:40.897Z,6.10
2018-04-28T18:57:08.355Z,6.37
2018-04-28T18:59:35.793Z,4.77
2018-04-28T19:02:03.267Z,5.20
2018-04-28T19:04:30.716Z,5.07
2018-04-28T19:06:58.169Z,5.37
2018-04-28T19:09:25.691Z,5.03
2018-04-28T19:11:53.093Z,5.43
2018-04-28T19:14:20.549Z,5.87
2018-04-28T19:16:47.992Z,5.80
2018-04-28T19:19:15.469Z,6.10
2018-04-28T19:21:42.930Z,6.40
2018-04-28T19:24:10.372Z,5.90
2018-04-28T19:26:37.845Z,6.47
2018-04-28T19:29:05.289Z,6.83
2018-04-28T19:31:32.748Z,6.47
2018-04-28T19:34:00.986Z,6.53
2018-04-28T19:36:28.437Z,6.47
2018-04-28T19:38:56.659Z,6.57
2018-04-28T19:41:24.866Z,6.87
2018-04-28T19:43:52.329Z,6.20
2018-04-28T19:46:20.583Z,6.40
2018-04-28T19:48:48.072Z,6.57
2018-04-28T19:51:15.473Z,6.07
2018-04-28T19:53:42.936Z,6.30
2018-04-28T19:56:10.382Z,6.67
2018-04-28T19:58:37.841Z,8.03
2018-04-28T20:01:05.301Z,7.07
2018-04-28T20:03:32.750Z,6.80
2018-04-28T20:06:00.205Z,6.70
2018-04-28T20:08:27.681Z,7.20
2018-04-28T20:10:55.124Z,7.20
2018-04-28T20:13:22.593Z,6.60
2018-04-28T20:15:50.044Z,6.90
2018-04-28T20:18:17.494Z,8.40
2018-04-28T20:20:44.954Z,10.27
2018-04-28T20:23:24.257Z,9.57
2018-04-28T20:25:52.502Z,8.40
2018-04-28T20:28:19.940Z,7.60
2018-04-28T20:30:47.401Z,8.33
2018-04-28T20:33:14.850Z,8.40
2018-04-28T20:35:42.317Z,9.27
2018-04-28T20:38:09.758Z,8.20
2018-04-28T20:40:37.270Z,6.90
2018-04-28T20:43:04.706Z,6.70
2018-04-28T20:45:32.145Z,6.27
2018-04-28T20:47:59.665Z,6.50
2018-04-28T20:50:27.056Z,6.50
2018-04-28T20:52:54.534Z,6.37
2018-04-28T20:55:22.026Z,6.80
2018-04-28T20:57:49.477Z,6.20
2018-04-28T21:00:16.954Z,7.30
2018-04-28T21:02:44.401Z,8.00
2018-04-28T21:05:11.860Z,6.50
2018-04-28T21:07:39.300Z,6.73
2018-04-28T21:10:07.515Z,6.70
2018-04-28T21:12:34.959Z,7.20
2018-04-28T21:15:02.421Z,6.83
2018-04-28T21:17:29.873Z,7.10
2018-04-28T21:19:57.338Z,7.00
2018-04-28T21:22:24.794Z,6.90
2018-04-28T21:24:52.253Z,7.27
2018-04-28T21:27:19.717Z,7.97
2018-04-28T21:29:47.174Z,7.20
2018-04-28T21:32:14.638Z,7.30
2018-04-28T21:34:42.103Z,8.90
2018-04-28T21:39:44.284Z,8.23
2018-04-28T21:42:11.735Z,7.57
2018-04-28T21:44:39.192Z,7.80
2018-04-28T21:47:06.662Z,9.23
2018-04-28T21:49:34.126Z,9.63
2018-04-28T21:52:01.578Z,9.50
2018-04-28T21:54:29.035Z,9.63
2018-04-28T21:56:56.499Z,10.17
2018-04-28T21:59:23.950Z,9.60
2018-04-28T22:01:51.409Z,8.50
2018-04-28T22:04:18.855Z,8.93
2018-04-28T22:06:46.326Z,9.10
2018-04-28T22:09:13.782Z,9.77
2018-04-28T22:11:41.254Z,8.20
2018-04-28T22:14:09.465Z,8.37
2018-04-28T22:16:36.919Z,7.73
2018-04-28T22:19:04.793Z,8.13
2018-04-28T22:21:32.250Z,7.50
2018-04-28T22:23:59.718Z,10.67
2018-04-28T22:26:27.198Z,9.50
2018-04-28T22:28:54.653Z,9.27
2018-04-28T22:31:22.883Z,8.50
2018-04-28T22:33:50.338Z,8.60
2018-04-28T22:36:17.810Z,8.40
2018-04-28T22:38:45.268Z,7.63
2018-04-28T22:41:12.721Z,8.53
2018-04-28T22:43:40.174Z,7.97
2018-04-28T22:46:07.620Z,7.57
2018-04-28T22:48:35.086Z,8.00
2018-04-28T22:51:02.551Z,7.77
2018-04-28T22:53:30.010Z,8.03
2018-04-28T22:55:57.475Z,8.27
2018-04-28T22:58:24.938Z,8.07
2018-04-28T23:00:52.401Z,8.03
2018-04-28T23:03:19.858Z,8.37
2018-04-28T23:05:47.321Z,8.03
2018-04-28T23:08:14.764Z,8.20
2018-04-28T23:10:42.234Z,8.37
2018-04-28T23:13:09.695Z,8.57
2018-04-28T23:15:37.144Z,8.00
2018-04-28T23:18:04.600Z,8.40
2018-04-28T23:20:32.042Z,9.63
2018-04-28T23:22:59.492Z,8.83
2018-04-28T23:25:26.953Z,8.97
2018-04-28T23:27:54.398Z,9.23
2018-04-28T23:30:21.853Z,11.50
2018-04-28T23:32:49.310Z,10.17
2018-04-28T23:35:16.773Z,16.67
2018-04-28T23:37:44.226Z,21.17
2018-04-28T23:40:11.669Z,22.67
2018-04-28T23:42:39.125Z,19.37
2018-04-28T23:45:06.583Z,13.87
2018-04-28T23:47:34.806Z,11.40
2018-04-28T23:50:02.255Z,10.47
2018-04-28T23:52:29.708Z,9.10
2018-04-28T23:54:57.156Z,9.10
2018-04-28T23:57:24.614Z,8.67
2018-04-28T23:59:52.069Z,9.50
